sensor_id;sensor_type;location;lat;lon;timestamp;pressure;altitude;pressure_sealevel;temperature;humidity
76592;BME280;65481;47.600;19.682;2023-04-30T00:02:34;100113.75;;;11.32;97.98
76592;BME280;65481;47.600;19.682;2023-04-30T00:07:35;100111.25;;;11.25;98.97
76592;BME280;65481;47.600;19.682;2023-04-30T00:12:36;100113.47;;;11.16;100.00
76592;BME280;65481;47.600;19.682;2023-04-30T00:17:37;100113.59;;;11.10;100.00
76592;BME280;65481;47.600;19.682;2023-04-30T00:22:37;100109.44;;;11.14;100.00
76592;BME280;65481;47.600;19.682;2023-04-30T00:27:38;100107.16;;;11.17;100.00
76592;BME280;65481;47.600;19.682;2023-04-30T00:32:38;100097.66;;;11.33;100.00
76592;BME280;65481;47.600;19.682;2023-04-30T00:37:39;100095.94;;;11.39;100.00
76592;BME280;65481;47.600;19.682;2023-04-30T00:42:39;100096.25;;;11.43;100.00
76592;BME280;65481;47.600;19.682;2023-04-30T00:47:40;100088.72;;;11.34;100.00
76592;BME280;65481;47.600;19.682;2023-04-30T00:52:41;100086.00;;;11.29;100.00
76592;BME280;65481;47.600;19.682;2023-04-30T00:57:42;100085.78;;;11.19;100.00
76592;BME280;65481;47.600;19.682;2023-04-30T01:02:42;100087.34;;;11.03;100.00
76592;BME280;65481;47.600;19.682;2023-04-30T01:07:44;100089.66;;;10.87;100.00
76592;BME280;65481;47.600;19.682;2023-04-30T01:18:04;100089.34;;;10.60;100.00
76592;BME280;65481;47.600;19.682;2023-04-30T01:28:34;100090.88;;;10.44;100.00
76592;BME280;65481;47.600;19.682;2023-04-30T01:33:35;100087.31;;;10.38;100.00
76592;BME280;65481;47.600;19.682;2023-04-30T01:49:29;100086.91;;;9.99;100.00
76592;BME280;65481;47.600;19.682;2023-04-30T01:59:37;100081.63;;;9.99;100.00
76592;BME280;65481;47.600;19.682;2023-04-30T02:04:38;100073.38;;;9.95;100.00
76592;BME280;65481;47.600;19.682;2023-04-30T02:09:38;100087.91;;;9.86;100.00
76592;BME280;65481;47.600;19.682;2023-04-30T02:14:39;100088.16;;;9.84;100.00
76592;BME280;65481;47.600;19.682;2023-04-30T02:19:39;100105.00;;;9.83;100.00
76592;BME280;65481;47.600;19.682;2023-04-30T02:24:40;100099.81;;;9.77;100.00
76592;BME280;65481;47.600;19.682;2023-04-30T02:29:40;100103.69;;;9.74;100.00
76592;BME280;65481;47.600;19.682;2023-04-30T02:34:41;100093.34;;;9.61;100.00
76592;BME280;65481;47.600;19.682;2023-04-30T02:39:42;100097.34;;;9.63;100.00
76592;BME280;65481;47.600;19.682;2023-04-30T02:44:42;100096.44;;;9.58;100.00
76592;BME280;65481;47.600;19.682;2023-04-30T02:49:43;100089.78;;;9.55;100.00
76592;BME280;65481;47.600;19.682;2023-04-30T02:54:43;100085.00;;;9.64;100.00
76592;BME280;65481;47.600;19.682;2023-04-30T02:59:44;100088.13;;;9.73;100.00
76592;BME280;65481;47.600;19.682;2023-04-30T03:04:45;100090.84;;;9.78;100.00
76592;BME280;65481;47.600;19.682;2023-04-30T03:09:45;100083.22;;;9.88;100.00
76592;BME280;65481;47.600;19.682;2023-04-30T03:14:46;100084.59;;;9.91;100.00
76592;BME280;65481;47.600;19.682;2023-04-30T03:19:46;100087.34;;;9.84;100.00
76592;BME280;65481;47.600;19.682;2023-04-30T03:24:47;100095.00;;;9.74;100.00
76592;BME280;65481;47.600;19.682;2023-04-30T03:29:47;100100.66;;;9.59;100.00
76592;BME280;65481;47.600;19.682;2023-04-30T03:34:48;100111.59;;;9.44;100.00
76592;BME280;65481;47.600;19.682;2023-04-30T03:39:50;100099.59;;;9.48;100.00
76592;BME280;65481;47.600;19.682;2023-04-30T03:44:50;100098.63;;;9.61;100.00
76592;BME280;65481;47.600;19.682;2023-04-30T03:49:51;100097.19;;;9.77;100.00
76592;BME280;65481;47.600;19.682;2023-04-30T03:54:54;100098.59;;;9.91;100.00
76592;BME280;65481;47.600;19.682;2023-04-30T03:59:54;100098.25;;;9.99;100.00
76592;BME280;65481;47.600;19.682;2023-04-30T04:04:55;100111.31;;;10.06;100.00
76592;BME280;65481;47.600;19.682;2023-04-30T04:09:56;100110.75;;;10.16;100.00
76592;BME280;65481;47.600;19.682;2023-04-30T04:14:56;100122.34;;;10.03;100.00
76592;BME280;65481;47.600;19.682;2023-04-30T04:19:57;100122.09;;;10.05;100.00
76592;BME280;65481;47.600;19.682;2023-04-30T04:24:58;100130.00;;;10.05;100.00
76592;BME280;65481;47.600;19.682;2023-04-30T04:29:59;100133.34;;;10.12;100.00
76592;BME280;65481;47.600;19.682;2023-04-30T04:34:59;100141.50;;;10.22;100.00
76592;BME280;65481;47.600;19.682;2023-04-30T04:40:00;100147.38;;;10.36;100.00
76592;BME280;65481;47.600;19.682;2023-04-30T04:45:01;100144.53;;;10.50;100.00
76592;BME280;65481;47.600;19.682;2023-04-30T04:50:03;100158.66;;;10.67;100.00
76592;BME280;65481;47.600;19.682;2023-04-30T04:55:04;100159.66;;;10.90;100.00
76592;BME280;65481;47.600;19.682;2023-04-30T05:00:05;100163.06;;;11.14;100.00
76592;BME280;65481;47.600;19.682;2023-04-30T05:05:07;100160.28;;;11.33;100.00
76592;BME280;65481;47.600;19.682;2023-04-30T05:10:08;100169.53;;;11.47;100.00
76592;BME280;65481;47.600;19.682;2023-04-30T05:15:09;100175.19;;;11.68;100.00
76592;BME280;65481;47.600;19.682;2023-04-30T05:20:10;100170.81;;;12.03;100.00
76592;BME280;65481;47.600;19.682;2023-04-30T05:25:11;100170.38;;;12.79;100.00
76592;BME280;65481;47.600;19.682;2023-04-30T05:30:12;100169.53;;;13.57;100.00
76592;BME280;65481;47.600;19.682;2023-04-30T05:35:15;100176.59;;;14.72;100.00
76592;BME280;65481;47.600;19.682;2023-04-30T05:40:16;100169.78;;;15.60;94.41
76592;BME280;65481;47.600;19.682;2023-04-30T05:45:16;100174.66;;;16.30;87.34
76592;BME280;65481;47.600;19.682;2023-04-30T05:50:17;100170.03;;;16.88;81.16
76592;BME280;65481;47.600;19.682;2023-04-30T05:55:18;100168.91;;;17.15;75.28
76592;BME280;65481;47.600;19.682;2023-04-30T06:00:18;100175.38;;;17.53;72.52
76592;BME280;65481;47.600;19.682;2023-04-30T06:05:19;100176.50;;;17.87;69.75
76592;BME280;65481;47.600;19.682;2023-04-30T06:10:19;100185.63;;;18.50;66.00
76592;BME280;65481;47.600;19.682;2023-04-30T06:15:20;100184.91;;;18.93;63.10
76592;BME280;65481;47.600;19.682;2023-04-30T06:20:21;100189.13;;;19.24;61.03
76592;BME280;65481;47.600;19.682;2023-04-30T06:25:22;100178.47;;;19.62;58.66
76592;BME280;65481;47.600;19.682;2023-04-30T06:30:23;100185.09;;;19.64;57.66
76592;BME280;65481;47.600;19.682;2023-04-30T06:35:23;100179.47;;;20.04;56.43
76592;BME280;65481;47.600;19.682;2023-04-30T06:40:24;100176.59;;;20.48;55.41
76592;BME280;65481;47.600;19.682;2023-04-30T06:45:24;100176.97;;;20.41;53.75
76592;BME280;65481;47.600;19.682;2023-04-30T06:50:25;100173.03;;;20.19;52.33
76592;BME280;65481;47.600;19.682;2023-04-30T06:55:25;100183.06;;;20.61;51.60
76592;BME280;65481;47.600;19.682;2023-04-30T07:00:27;100169.16;;;21.14;49.82
76592;BME280;65481;47.600;19.682;2023-04-30T07:05:28;100168.03;;;21.43;48.77
76592;BME280;65481;47.600;19.682;2023-04-30T07:10:29;100175.41;;;21.74;47.49
76592;BME280;65481;47.600;19.682;2023-04-30T07:15:30;100174.44;;;22.16;46.26
76592;BME280;65481;47.600;19.682;2023-04-30T07:20:31;100173.19;;;22.45;44.71
76592;BME280;65481;47.600;19.682;2023-04-30T07:25:31;100177.22;;;22.33;44.48
76592;BME280;65481;47.600;19.682;2023-04-30T07:30:32;100183.84;;;23.08;43.06
76592;BME280;65481;47.600;19.682;2023-04-30T07:35:32;100179.03;;;22.87;42.97
76592;BME280;65481;47.600;19.682;2023-04-30T07:40:33;100185.03;;;23.24;42.43
76592;BME280;65481;47.600;19.682;2023-04-30T07:45:34;100198.19;;;23.70;42.24
76592;BME280;65481;47.600;19.682;2023-04-30T07:50:35;100188.81;;;24.59;39.69
76592;BME280;65481;47.600;19.682;2023-04-30T07:55:36;100193.97;;;25.12;38.35
76592;BME280;65481;47.600;19.682;2023-04-30T08:00:36;100208.31;;;25.33;36.59
76592;BME280;65481;47.600;19.682;2023-04-30T08:05:37;100205.56;;;25.42;36.49
76592;BME280;65481;47.600;19.682;2023-04-30T08:10:38;100204.63;;;26.02;35.65
76592;BME280;65481;47.600;19.682;2023-04-30T08:15:38;100205.41;;;26.48;34.69
76592;BME280;65481;47.600;19.682;2023-04-30T08:20:39;100204.69;;;26.26;34.71
76592;BME280;65481;47.600;19.682;2023-04-30T08:25:39;100212.28;;;26.45;34.46
76592;BME280;65481;47.600;19.682;2023-04-30T08:30:40;100210.72;;;26.57;34.03
76592;BME280;65481;47.600;19.682;2023-04-30T08:35:41;100203.88;;;26.84;33.59
76592;BME280;65481;47.600;19.682;2023-04-30T08:40:45;100209.25;;;25.37;34.80
76592;BME280;65481;47.600;19.682;2023-04-30T08:45:49;100199.47;;;23.99;37.60
76592;BME280;65481;47.600;19.682;2023-04-30T08:50:51;100194.03;;;25.54;35.42
76592;BME280;65481;47.600;19.682;2023-04-30T08:55:52;100198.91;;;26.99;33.38
76592;BME280;65481;47.600;19.682;2023-04-30T09:00:52;100206.88;;;27.73;33.27
76592;BME280;65481;47.600;19.682;2023-04-30T09:05:54;100210.41;;;28.18;32.08
76592;BME280;65481;47.600;19.682;2023-04-30T09:10:54;100208.53;;;28.06;31.65
76592;BME280;65481;47.600;19.682;2023-04-30T09:15:58;100201.22;;;25.71;34.63
76592;BME280;65481;47.600;19.682;2023-04-30T09:21:00;100201.03;;;25.55;34.77
76592;BME280;65481;47.600;19.682;2023-04-30T09:26:06;100199.44;;;26.67;33.43
76592;BME280;65481;47.600;19.682;2023-04-30T09:31:18;100208.31;;;27.42;32.14
76592;BME280;65481;47.600;19.682;2023-04-30T09:36:19;100193.94;;;27.01;31.43
76592;BME280;65481;47.600;19.682;2023-04-30T09:41:25;100192.34;;;26.04;34.00
76592;BME280;65481;47.600;19.682;2023-04-30T09:46:31;100188.13;;;27.68;31.57
76592;BME280;65481;47.600;19.682;2023-04-30T09:51:32;100185.03;;;28.59;30.63
76592;BME280;65481;47.600;19.682;2023-04-30T09:56:34;100177.47;;;26.69;32.55
76592;BME280;65481;47.600;19.682;2023-04-30T10:01:37;100169.38;;;26.81;32.64
76592;BME280;65481;47.600;19.682;2023-04-30T10:06:38;100177.00;;;25.11;34.46
76592;BME280;65481;47.600;19.682;2023-04-30T10:11:42;100176.81;;;24.00;35.91
76592;BME280;65481;47.600;19.682;2023-04-30T10:17:13;100175.19;;;23.28;37.17
76592;BME280;65481;47.600;19.682;2023-04-30T10:22:15;100174.56;;;23.32;37.26
76592;BME280;65481;47.600;19.682;2023-04-30T10:27:16;100172.25;;;22.98;37.76
76592;BME280;65481;47.600;19.682;2023-04-30T10:32:17;100165.69;;;22.64;38.24
76592;BME280;65481;47.600;19.682;2023-04-30T10:42:48;100152.00;;;25.23;35.72
76592;BME280;65481;47.600;19.682;2023-04-30T10:47:49;100159.19;;;26.41;33.48
76592;BME280;65481;47.600;19.682;2023-04-30T10:53:03;100162.00;;;27.19;31.80
76592;BME280;65481;47.600;19.682;2023-04-30T10:58:31;100153.31;;;27.01;31.49
76592;BME280;65481;47.600;19.682;2023-04-30T11:03:34;100157.22;;;25.28;33.36
76592;BME280;65481;47.600;19.682;2023-04-30T11:08:37;100150.28;;;26.40;31.94
76592;BME280;65481;47.600;19.682;2023-04-30T11:13:44;100147.03;;;26.47;31.39
76592;BME280;65481;47.600;19.682;2023-04-30T11:18:45;100143.56;;;26.84;30.40
76592;BME280;65481;47.600;19.682;2023-04-30T11:23:48;100154.28;;;24.91;32.52
76592;BME280;65481;47.600;19.682;2023-04-30T11:28:52;100159.34;;;24.06;34.62
76592;BME280;65481;47.600;19.682;2023-04-30T11:33:54;100158.41;;;23.49;35.37
76592;BME280;65481;47.600;19.682;2023-04-30T11:38:56;100158.38;;;23.14;35.96
76592;BME280;65481;47.600;19.682;2023-04-30T11:43:56;100154.19;;;22.73;36.27
76592;BME280;65481;47.600;19.682;2023-04-30T11:48:57;100150.03;;;23.59;36.01
76592;BME280;65481;47.600;19.682;2023-04-30T11:53:58;100160.66;;;24.47;34.66
76592;BME280;65481;47.600;19.682;2023-04-30T11:59:00;100156.09;;;24.78;34.25
76592;BME280;65481;47.600;19.682;2023-04-30T12:04:00;100154.44;;;23.82;35.25
76592;BME280;65481;47.600;19.682;2023-04-30T12:09:03;100163.91;;;23.09;36.29
76592;BME280;65481;47.600;19.682;2023-04-30T12:14:08;100158.59;;;22.68;36.67
76592;BME280;65481;47.600;19.682;2023-04-30T12:19:14;100159.47;;;22.23;38.65
76592;BME280;65481;47.600;19.682;2023-04-30T12:24:17;100169.56;;;21.72;42.47
76592;BME280;65481;47.600;19.682;2023-04-30T12:29:18;100176.41;;;20.58;49.55
76592;BME280;65481;47.600;19.682;2023-04-30T12:34:18;100179.63;;;19.75;55.05
76592;BME280;65481;47.600;19.682;2023-04-30T12:39:18;100191.81;;;19.24;58.69
76592;BME280;65481;47.600;19.682;2023-04-30T12:44:21;100195.16;;;18.86;61.55
76592;BME280;65481;47.600;19.682;2023-04-30T12:49:23;100200.25;;;18.58;63.88
76592;BME280;65481;47.600;19.682;2023-04-30T12:54:27;100196.97;;;18.02;67.33
76592;BME280;65481;47.600;19.682;2023-04-30T12:59:39;100194.50;;;17.66;70.61
76592;BME280;65481;47.600;19.682;2023-04-30T13:04:41;100192.03;;;17.30;70.68
76592;BME280;65481;47.600;19.682;2023-04-30T13:09:42;100191.06;;;17.05;71.18
76592;BME280;65481;47.600;19.682;2023-04-30T13:14:42;100196.44;;;16.84;72.71
76592;BME280;65481;47.600;19.682;2023-04-30T13:19:43;100191.63;;;16.76;73.34
76592;BME280;65481;47.600;19.682;2023-04-30T13:24:43;100195.38;;;16.75;73.63
76592;BME280;65481;47.600;19.682;2023-04-30T13:29:43;100203.88;;;16.82;73.46
76592;BME280;65481;47.600;19.682;2023-04-30T13:34:44;100210.53;;;16.85;73.13
76592;BME280;65481;47.600;19.682;2023-04-30T13:39:45;100201.72;;;16.94;73.68
76592;BME280;65481;47.600;19.682;2023-04-30T13:44:45;100195.34;;;16.80;76.36
76592;BME280;65481;47.600;19.682;2023-04-30T13:49:49;100193.00;;;16.53;79.77
76592;BME280;65481;47.600;19.682;2023-04-30T13:54:50;100189.00;;;16.60;81.40
76592;BME280;65481;47.600;19.682;2023-04-30T13:59:51;100187.41;;;16.70;80.87
76592;BME280;65481;47.600;19.682;2023-04-30T14:04:51;100185.53;;;16.70;81.49
76592;BME280;65481;47.600;19.682;2023-04-30T14:09:52;100190.56;;;16.82;80.97
76592;BME280;65481;47.600;19.682;2023-04-30T14:14:52;100175.59;;;16.91;81.27
76592;BME280;65481;47.600;19.682;2023-04-30T14:19:53;100176.94;;;17.04;81.13
76592;BME280;65481;47.600;19.682;2023-04-30T14:24:54;100171.56;;;17.15;81.00
76592;BME280;65481;47.600;19.682;2023-04-30T14:29:54;100173.34;;;17.30;76.71
76592;BME280;65481;47.600;19.682;2023-04-30T14:34:55;100177.00;;;17.44;72.74
76592;BME280;65481;47.600;19.682;2023-04-30T14:39:55;100179.56;;;17.65;71.16
76592;BME280;65481;47.600;19.682;2023-04-30T14:44:56;100178.84;;;17.99;69.77
76592;BME280;65481;47.600;19.682;2023-04-30T14:49:56;100184.88;;;18.15;72.28
76592;BME280;65481;47.600;19.682;2023-04-30T14:54:58;100173.97;;;18.41;70.21
76592;BME280;65481;47.600;19.682;2023-04-30T14:59:58;100193.63;;;18.50;67.75
76592;BME280;65481;47.600;19.682;2023-04-30T15:04:59;100194.72;;;18.49;66.23
76592;BME280;65481;47.600;19.682;2023-04-30T15:10:00;100195.47;;;18.55;65.35
76592;BME280;65481;47.600;19.682;2023-04-30T15:15:01;100204.25;;;18.60;64.01
76592;BME280;65481;47.600;19.682;2023-04-30T15:20:05;100201.63;;;18.55;64.77
76592;BME280;65481;47.600;19.682;2023-04-30T15:25:06;100204.69;;;18.68;63.98
76592;BME280;65481;47.600;19.682;2023-04-30T15:30:06;100210.22;;;18.76;63.50
76592;BME280;65481;47.600;19.682;2023-04-30T15:35:07;100206.50;;;18.72;63.78
76592;BME280;65481;47.600;19.682;2023-04-30T15:40:08;100210.84;;;18.68;62.84
76592;BME280;65481;47.600;19.682;2023-04-30T15:45:14;100210.69;;;18.54;63.73
76592;BME280;65481;47.600;19.682;2023-04-30T15:50:15;100207.88;;;18.70;63.03
76592;BME280;65481;47.600;19.682;2023-04-30T15:55:16;100204.88;;;18.76;62.68
76592;BME280;65481;47.600;19.682;2023-04-30T16:00:17;100202.66;;;18.84;63.38
76592;BME280;65481;47.600;19.682;2023-04-30T16:05:17;100202.16;;;18.82;62.87
76592;BME280;65481;47.600;19.682;2023-04-30T16:10:18;100206.06;;;18.95;62.27
76592;BME280;65481;47.600;19.682;2023-04-30T16:15:19;100215.72;;;18.85;61.36
76592;BME280;65481;47.600;19.682;2023-04-30T16:20:19;100207.19;;;18.59;62.04
76592;BME280;65481;47.600;19.682;2023-04-30T16:25:20;100206.22;;;18.50;63.82
76592;BME280;65481;47.600;19.682;2023-04-30T16:30:21;100205.03;;;18.31;64.71
76592;BME280;65481;47.600;19.682;2023-04-30T16:35:22;100204.06;;;18.17;63.69
76592;BME280;65481;47.600;19.682;2023-04-30T16:40:22;100214.56;;;18.03;63.67
76592;BME280;65481;47.600;19.682;2023-04-30T16:45:23;100215.97;;;17.90;63.99
76592;BME280;65481;47.600;19.682;2023-04-30T16:50:24;100222.69;;;17.82;64.44
76592;BME280;65481;47.600;19.682;2023-04-30T16:55:26;100221.44;;;17.69;65.12
76592;BME280;65481;47.600;19.682;2023-04-30T17:00:27;100233.97;;;17.69;65.13
76592;BME280;65481;47.600;19.682;2023-04-30T17:05:27;100229.50;;;17.59;65.81
76592;BME280;65481;47.600;19.682;2023-04-30T17:10:27;100239.41;;;17.48;66.17
76592;BME280;65481;47.600;19.682;2023-04-30T17:15:29;100235.22;;;17.26;67.46
76592;BME280;65481;47.600;19.682;2023-04-30T17:20:30;100238.75;;;17.12;68.39
76592;BME280;65481;47.600;19.682;2023-04-30T17:25:31;100248.91;;;16.99;69.38
76592;BME280;65481;47.600;19.682;2023-04-30T17:30:31;100250.78;;;16.88;70.30
76592;BME280;65481;47.600;19.682;2023-04-30T17:35:33;100263.84;;;16.74;72.01
76592;BME280;65481;47.600;19.682;2023-04-30T17:40:34;100267.84;;;16.67;72.93
76592;BME280;65481;47.600;19.682;2023-04-30T17:45:34;100269.97;;;16.54;74.14
76592;BME280;65481;47.600;19.682;2023-04-30T17:50:35;100273.44;;;16.44;74.73
76592;BME280;65481;47.600;19.682;2023-04-30T17:55:36;100283.56;;;16.37;75.14
76592;BME280;65481;47.600;19.682;2023-04-30T18:00:37;100277.38;;;16.16;76.43
76592;BME280;65481;47.600;19.682;2023-04-30T18:05:38;100290.69;;;15.95;77.89
76592;BME280;65481;47.600;19.682;2023-04-30T18:10:39;100295.19;;;16.00;77.68
76592;BME280;65481;47.600;19.682;2023-04-30T18:15:39;100306.38;;;16.02;77.44
76592;BME280;65481;47.600;19.682;2023-04-30T18:20:40;100316.72;;;15.88;78.39
76592;BME280;65481;47.600;19.682;2023-04-30T18:25:40;100336.31;;;15.71;79.94
76592;BME280;65481;47.600;19.682;2023-04-30T18:30:44;100335.94;;;15.47;82.00
76592;BME280;65481;47.600;19.682;2023-04-30T18:35:44;100341.25;;;15.47;81.60
76592;BME280;65481;47.600;19.682;2023-04-30T18:40:53;100349.78;;;15.49;81.23
76592;BME280;65481;47.600;19.682;2023-04-30T18:45:55;100352.13;;;15.40;80.60
76592;BME280;65481;47.600;19.682;2023-04-30T18:50:55;100365.88;;;15.32;79.58
76592;BME280;65481;47.600;19.682;2023-04-30T18:55:57;100369.53;;;15.21;77.76
76592;BME280;65481;47.600;19.682;2023-04-30T19:00:57;100375.81;;;15.09;76.76
76592;BME280;65481;47.600;19.682;2023-04-30T19:05:58;100385.84;;;14.69;78.60
76592;BME280;65481;47.600;19.682;2023-04-30T19:10:58;100392.03;;;14.53;81.48
76592;BME280;65481;47.600;19.682;2023-04-30T19:16:00;100391.91;;;14.43;82.48
76592;BME280;65481;47.600;19.682;2023-04-30T19:21:01;100395.00;;;14.34;84.09
76592;BME280;65481;47.600;19.682;2023-04-30T19:26:02;100401.31;;;14.28;85.18
76592;BME280;65481;47.600;19.682;2023-04-30T19:31:03;100404.28;;;14.32;85.40
76592;BME280;65481;47.600;19.682;2023-04-30T19:36:05;100403.91;;;14.23;87.24
76592;BME280;65481;47.600;19.682;2023-04-30T19:41:06;100414.47;;;14.18;87.01
76592;BME280;65481;47.600;19.682;2023-04-30T19:46:07;100419.63;;;14.07;86.20
76592;BME280;65481;47.600;19.682;2023-04-30T19:51:07;100419.50;;;13.97;84.77
76592;BME280;65481;47.600;19.682;2023-04-30T19:56:08;100410.44;;;13.93;82.73
76592;BME280;65481;47.600;19.682;2023-04-30T20:01:09;100409.66;;;13.92;80.63
76592;BME280;65481;47.600;19.682;2023-04-30T20:06:10;100413.53;;;13.85;79.47
76592;BME280;65481;47.600;19.682;2023-04-30T20:11:11;100416.59;;;13.76;78.47
76592;BME280;65481;47.600;19.682;2023-04-30T20:16:12;100421.50;;;13.68;77.45
76592;BME280;65481;47.600;19.682;2023-04-30T20:21:17;100418.72;;;13.57;77.15
76592;BME280;65481;47.600;19.682;2023-04-30T20:26:18;100429.16;;;13.47;76.73
76592;BME280;65481;47.600;19.682;2023-04-30T20:31:20;100430.13;;;13.41;76.43
76592;BME280;65481;47.600;19.682;2023-04-30T20:36:21;100435.53;;;13.34;76.43
76592;BME280;65481;47.600;19.682;2023-04-30T20:41:23;100433.06;;;13.27;76.46
76592;BME280;65481;47.600;19.682;2023-04-30T20:46:26;100436.91;;;13.20;76.34
76592;BME280;65481;47.600;19.682;2023-04-30T20:51:27;100438.91;;;13.12;76.79
76592;BME280;65481;47.600;19.682;2023-04-30T20:56:28;100448.69;;;13.12;76.82
76592;BME280;65481;47.600;19.682;2023-04-30T21:01:29;100446.53;;;13.09;77.12
76592;BME280;65481;47.600;19.682;2023-04-30T21:06:30;100446.69;;;13.02;77.39
76592;BME280;65481;47.600;19.682;2023-04-30T21:11:33;100455.25;;;12.92;77.62
76592;BME280;65481;47.600;19.682;2023-04-30T21:16:33;100470.00;;;12.88;77.99
76592;BME280;65481;47.600;19.682;2023-04-30T21:21:34;100469.03;;;12.77;78.20
76592;BME280;65481;47.600;19.682;2023-04-30T21:26:35;100480.56;;;12.71;78.74
76592;BME280;65481;47.600;19.682;2023-04-30T21:31:35;100477.69;;;12.61;79.38
76592;BME280;65481;47.600;19.682;2023-04-30T21:36:36;100478.75;;;12.60;79.46
76592;BME280;65481;47.600;19.682;2023-04-30T21:41:37;100485.41;;;12.62;79.66
76592;BME280;65481;47.600;19.682;2023-04-30T21:46:37;100497.72;;;12.68;79.22
76592;BME280;65481;47.600;19.682;2023-04-30T21:51:38;100503.25;;;12.55;79.96
76592;BME280;65481;47.600;19.682;2023-04-30T21:56:39;100504.22;;;12.49;79.93
76592;BME280;65481;47.600;19.682;2023-04-30T22:01:40;100508.69;;;12.48;80.21
76592;BME280;65481;47.600;19.682;2023-04-30T22:06:40;100512.50;;;12.40;80.48
76592;BME280;65481;47.600;19.682;2023-04-30T22:11:41;100516.91;;;12.11;81.32
76592;BME280;65481;47.600;19.682;2023-04-30T22:16:42;100519.75;;;11.97;81.53
76592;BME280;65481;47.600;19.682;2023-04-30T22:21:42;100515.25;;;11.98;81.46
76592;BME280;65481;47.600;19.682;2023-04-30T22:26:43;100531.47;;;11.90;81.75
76592;BME280;65481;47.600;19.682;2023-04-30T22:31:43;100530.75;;;11.71;82.25
76592;BME280;65481;47.600;19.682;2023-04-30T22:36:44;100533.56;;;11.45;83.10
76592;BME280;65481;47.600;19.682;2023-04-30T22:41:45;100532.09;;;11.49;83.48
76592;BME280;65481;47.600;19.682;2023-04-30T22:46:46;100529.28;;;11.32;84.17
76592;BME280;65481;47.600;19.682;2023-04-30T22:51:47;100530.41;;;11.25;85.11
76592;BME280;65481;47.600;19.682;2023-04-30T22:56:48;100528.13;;;11.28;85.03
76592;BME280;65481;47.600;19.682;2023-04-30T23:01:48;100530.63;;;11.23;84.40
76592;BME280;65481;47.600;19.682;2023-04-30T23:06:49;100529.91;;;11.16;83.45
76592;BME280;65481;47.600;19.682;2023-04-30T23:11:49;100524.09;;;10.95;83.96
76592;BME280;65481;47.600;19.682;2023-04-30T23:16:50;100527.69;;;11.01;82.95
76592;BME280;65481;47.600;19.682;2023-04-30T23:21:50;100525.94;;;10.95;82.67
76592;BME280;65481;47.600;19.682;2023-04-30T23:26:51;100529.69;;;10.68;84.58
76592;BME280;65481;47.600;19.682;2023-04-30T23:31:51;100533.88;;;10.57;85.10
76592;BME280;65481;47.600;19.682;2023-04-30T23:36:53;100533.44;;;10.60;84.59
76592;BME280;65481;47.600;19.682;2023-04-30T23:41:53;100537.78;;;10.55;84.35
76592;BME280;65481;47.600;19.682;2023-04-30T23:46:53;100545.25;;;10.33;83.79
76592;BME280;65481;47.600;19.682;2023-04-30T23:51:55;100539.81;;;10.09;83.63
76592;BME280;65481;47.600;19.682;2023-04-30T23:56:55;100532.44;;;9.92;84.56
